Accueil
METAR-TAF:

METAR-TAF

Aéroports :

Aéroport international Clayton J. Llyod

Anguilla, Anguilla

latitude: 18-12-17N, longitude: 063-03-18W, altitude: 31 m

Observation

Le bulletin a été fait il y a 27 minutes, à 18:00 UTC
Vent 9 kt de est/sud-est
Température 28°C
Humidité 66%
Pression 1015 hPa
Visibilité 10 km ou plus
Quelques nuages à une hauteur de 1900 ft

METAR: TQPF 051800Z 11009KT 9999 FEW019 28/21 Q1015

Heure: 14:27 (18:27 UTC)

Prévision

Le bulletin a été fait il y a 1 heure et 27 minutes, à 17:00 UTC
Prévision valable du 05 à 18 UTC au 06 à 18 UTC
Vent 9 kt de est
Visibilité 10 km ou plus
Nuages épars à une hauteur de 1800 ft
Probabilité 30% :
Temporairement
du 05 à 18 UTC au 06 à 02 UTC
averses de pluie

TAF: TQPF 051700Z 0518/0618 09009KT 9999 SCT018 PROB30 TEMPO 0518/0602 SHRA

Observations et prévisions météorologiques de plus de 4000 aéroports (messages METAR et TAF).

Les stations disponibles sont représentées par des disques jaunes et rouges sur la carte.

Passer la souris dessus pour voir le nom de la station.

Cliquer dessus pour voir les observations et prévisions météorologiques.

Pour changer de carte: cliquez sur les boutons verts avec une croix noire pour zoomer, sur le bouton vert avec un tiret pour effectuer un zoom arrière, ou sur les flèches vertes pour les cartes adjacentes.


METAR-TAF: